sensor_id;sensor_type;location;lat;lon;timestamp;P1;durP1;ratioP1;P2;durP2;ratioP2
52043;SDS011;38053;53.100;6.078;2022-10-17T00:00:00;12.68;;;3.70;;
52043;SDS011;38053;53.100;6.078;2022-10-17T00:02:26;11.05;;;3.28;;
52043;SDS011;38053;53.100;6.078;2022-10-17T00:04:55;17.17;;;2.97;;
52043;SDS011;38053;53.100;6.078;2022-10-17T00:07:21;13.38;;;4.40;;
52043;SDS011;38053;53.100;6.078;2022-10-17T00:09:47;16.23;;;3.50;;
52043;SDS011;38053;53.100;6.078;2022-10-17T00:12:12;11.45;;;3.50;;
52043;SDS011;38053;53.100;6.078;2022-10-17T00:14:38;18.33;;;3.47;;
52043;SDS011;38053;53.100;6.078;2022-10-17T00:17:04;12.45;;;4.20;;
52043;SDS011;38053;53.100;6.078;2022-10-17T00:19:30;13.90;;;3.20;;
52043;SDS011;38053;53.100;6.078;2022-10-17T00:21:56;12.13;;;3.45;;
52043;SDS011;38053;53.100;6.078;2022-10-17T00:24:21;10.48;;;3.28;;
52043;SDS011;38053;53.100;6.078;2022-10-17T00:26:47;9.77;;;3.42;;
52043;SDS011;38053;53.100;6.078;2022-10-17T00:29:13;13.50;;;3.00;;
52043;SDS011;38053;53.100;6.078;2022-10-17T00:31:38;15.27;;;3.55;;
52043;SDS011;38053;53.100;6.078;2022-10-17T00:34:04;13.55;;;3.17;;
52043;SDS011;38053;53.100;6.078;2022-10-17T00:36:30;20.15;;;4.00;;
52043;SDS011;38053;53.100;6.078;2022-10-17T00:38:56;12.43;;;4.88;;
52043;SDS011;38053;53.100;6.078;2022-10-17T00:41:28;12.30;;;3.67;;
52043;SDS011;38053;53.100;6.078;2022-10-17T00:44:05;12.95;;;3.72;;
52043;SDS011;38053;53.100;6.078;2022-10-17T00:46:52;11.52;;;3.17;;
52043;SDS011;38053;53.100;6.078;2022-10-17T00:49:18;18.60;;;4.35;;
52043;SDS011;38053;53.100;6.078;2022-10-17T00:54:15;13.65;;;3.78;;
52043;SDS011;38053;53.100;6.078;2022-10-17T00:56:43;11.20;;;4.85;;
52043;SDS011;38053;53.100;6.078;2022-10-17T00:59:11;12.73;;;4.18;;
52043;SDS011;38053;53.100;6.078;2022-10-17T01:01:40;9.40;;;3.75;;
52043;SDS011;38053;53.100;6.078;2022-10-17T01:04:07;11.48;;;3.97;;
52043;SDS011;38053;53.100;6.078;2022-10-17T01:06:33;18.27;;;4.88;;
52043;SDS011;38053;53.100;6.078;2022-10-17T01:08:59;14.43;;;3.90;;
52043;SDS011;38053;53.100;6.078;2022-10-17T01:16:46;10.05;;;4.70;;
52043;SDS011;38053;53.100;6.078;2022-10-17T01:22:28;10.60;;;4.18;;
52043;SDS011;38053;53.100;6.078;2022-10-17T01:25:27;11.02;;;4.00;;
52043;SDS011;38053;53.100;6.078;2022-10-17T01:27:36;10.13;;;4.35;;
52043;SDS011;38053;53.100;6.078;2022-10-17T01:33:13;16.17;;;4.60;;
52043;SDS011;38053;53.100;6.078;2022-10-17T01:35:59;9.38;;;4.47;;
52043;SDS011;38053;53.100;6.078;2022-10-17T01:38:58;12.82;;;4.65;;
52043;SDS011;38053;53.100;6.078;2022-10-17T01:41:54;17.58;;;5.72;;
52043;SDS011;38053;53.100;6.078;2022-10-17T01:47:14;14.32;;;4.35;;
52043;SDS011;38053;53.100;6.078;2022-10-17T01:49:44;14.63;;;4.85;;
52043;SDS011;38053;53.100;6.078;2022-10-17T01:52:13;11.55;;;4.90;;
52043;SDS011;38053;53.100;6.078;2022-10-17T01:57:31;7.85;;;3.88;;
52043;SDS011;38053;53.100;6.078;2022-10-17T02:00:04;10.95;;;5.50;;
52043;SDS011;38053;53.100;6.078;2022-10-17T02:02:33;12.95;;;5.43;;
52043;SDS011;38053;53.100;6.078;2022-10-17T02:05:00;15.27;;;5.30;;
52043;SDS011;38053;53.100;6.078;2022-10-17T02:07:26;14.02;;;5.35;;
52043;SDS011;38053;53.100;6.078;2022-10-17T02:09:52;21.30;;;5.45;;
52043;SDS011;38053;53.100;6.078;2022-10-17T02:20:52;11.65;;;4.97;;
52043;SDS011;38053;53.100;6.078;2022-10-17T02:23:53;8.40;;;4.57;;
52043;SDS011;38053;53.100;6.078;2022-10-17T02:27:04;13.35;;;6.20;;
52043;SDS011;38053;53.100;6.078;2022-10-17T02:29:23;12.27;;;5.45;;
52043;SDS011;38053;53.100;6.078;2022-10-17T02:31:55;11.50;;;5.88;;
52043;SDS011;38053;53.100;6.078;2022-10-17T02:34:26;14.73;;;4.85;;
52043;SDS011;38053;53.100;6.078;2022-10-17T02:36:58;12.43;;;5.25;;
52043;SDS011;38053;53.100;6.078;2022-10-17T02:39:26;15.05;;;5.45;;
52043;SDS011;38053;53.100;6.078;2022-10-17T02:41:53;14.43;;;6.28;;
52043;SDS011;38053;53.100;6.078;2022-10-17T02:44:23;16.67;;;6.65;;
52043;SDS011;38053;53.100;6.078;2022-10-17T02:46:54;12.05;;;5.75;;
52043;SDS011;38053;53.100;6.078;2022-10-17T02:49:35;15.50;;;6.85;;
52043;SDS011;38053;53.100;6.078;2022-10-17T02:52:22;14.23;;;7.10;;
52043;SDS011;38053;53.100;6.078;2022-10-17T02:55:17;9.15;;;6.50;;
52043;SDS011;38053;53.100;6.078;2022-10-17T03:00:16;16.98;;;8.38;;
52043;SDS011;38053;53.100;6.078;2022-10-17T03:02:44;12.50;;;8.20;;
52043;SDS011;38053;53.100;6.078;2022-10-17T03:05:19;13.17;;;8.37;;
52043;SDS011;38053;53.100;6.078;2022-10-17T03:07:53;10.45;;;8.77;;
52043;SDS011;38053;53.100;6.078;2022-10-17T03:10:20;19.92;;;9.25;;
52043;SDS011;38053;53.100;6.078;2022-10-17T03:12:46;18.30;;;8.35;;
52043;SDS011;38053;53.100;6.078;2022-10-17T03:15:12;13.38;;;9.25;;
52043;SDS011;38053;53.100;6.078;2022-10-17T03:17:38;17.67;;;10.00;;
52043;SDS011;38053;53.100;6.078;2022-10-17T03:20:04;20.33;;;8.85;;
52043;SDS011;38053;53.100;6.078;2022-10-17T03:22:31;13.27;;;9.02;;
52043;SDS011;38053;53.100;6.078;2022-10-17T03:24:57;10.85;;;8.23;;
52043;SDS011;38053;53.100;6.078;2022-10-17T03:27:23;15.38;;;9.25;;
52043;SDS011;38053;53.100;6.078;2022-10-17T03:29:49;14.95;;;9.95;;
52043;SDS011;38053;53.100;6.078;2022-10-17T03:32:15;20.75;;;9.15;;
52043;SDS011;38053;53.100;6.078;2022-10-17T03:34:41;13.35;;;9.82;;
52043;SDS011;38053;53.100;6.078;2022-10-17T03:37:06;13.35;;;9.65;;
52043;SDS011;38053;53.100;6.078;2022-10-17T03:39:32;27.17;;;11.25;;
52043;SDS011;38053;53.100;6.078;2022-10-17T03:41:58;16.02;;;10.38;;
52043;SDS011;38053;53.100;6.078;2022-10-17T03:44:23;18.70;;;11.57;;
52043;SDS011;38053;53.100;6.078;2022-10-17T03:46:49;21.75;;;12.55;;
52043;SDS011;38053;53.100;6.078;2022-10-17T03:49:15;21.20;;;11.95;;
52043;SDS011;38053;53.100;6.078;2022-10-17T03:51:40;18.65;;;11.98;;
52043;SDS011;38053;53.100;6.078;2022-10-17T03:54:06;16.17;;;12.80;;
52043;SDS011;38053;53.100;6.078;2022-10-17T03:56:32;17.67;;;13.10;;
52043;SDS011;38053;53.100;6.078;2022-10-17T03:58:57;20.00;;;14.98;;
52043;SDS011;38053;53.100;6.078;2022-10-17T04:01:23;17.83;;;13.27;;
52043;SDS011;38053;53.100;6.078;2022-10-17T04:03:54;18.15;;;14.38;;
52043;SDS011;38053;53.100;6.078;2022-10-17T04:06:21;19.27;;;14.23;;
52043;SDS011;38053;53.100;6.078;2022-10-17T04:08:47;28.00;;;13.68;;
52043;SDS011;38053;53.100;6.078;2022-10-17T04:11:15;23.20;;;13.95;;
52043;SDS011;38053;53.100;6.078;2022-10-17T04:13:42;24.65;;;16.10;;
52043;SDS011;38053;53.100;6.078;2022-10-17T04:16:13;24.25;;;15.02;;
52043;SDS011;38053;53.100;6.078;2022-10-17T04:18:40;22.77;;;14.40;;
52043;SDS011;38053;53.100;6.078;2022-10-17T04:21:07;22.77;;;15.10;;
52043;SDS011;38053;53.100;6.078;2022-10-17T04:23:33;18.17;;;15.63;;
52043;SDS011;38053;53.100;6.078;2022-10-17T04:25:59;22.80;;;15.32;;
52043;SDS011;38053;53.100;6.078;2022-10-17T04:28:26;20.42;;;15.77;;
52043;SDS011;38053;53.100;6.078;2022-10-17T04:30:56;22.48;;;15.65;;
52043;SDS011;38053;53.100;6.078;2022-10-17T04:33:22;22.20;;;15.40;;
52043;SDS011;38053;53.100;6.078;2022-10-17T04:35:57;24.80;;;16.02;;
52043;SDS011;38053;53.100;6.078;2022-10-17T04:38:28;23.58;;;14.75;;
52043;SDS011;38053;53.100;6.078;2022-10-17T04:40:58;21.92;;;15.70;;
52043;SDS011;38053;53.100;6.078;2022-10-17T04:43:28;27.17;;;18.02;;
52043;SDS011;38053;53.100;6.078;2022-10-17T04:45:56;23.98;;;16.73;;
52043;SDS011;38053;53.100;6.078;2022-10-17T04:48:22;23.60;;;17.20;;
52043;SDS011;38053;53.100;6.078;2022-10-17T04:50:54;21.55;;;16.98;;
52043;SDS011;38053;53.100;6.078;2022-10-17T04:53:21;24.52;;;18.10;;
52043;SDS011;38053;53.100;6.078;2022-10-17T04:55:47;30.30;;;17.25;;
52043;SDS011;38053;53.100;6.078;2022-10-17T04:58:13;22.92;;;17.00;;
52043;SDS011;38053;53.100;6.078;2022-10-17T05:00:39;23.73;;;17.15;;
52043;SDS011;38053;53.100;6.078;2022-10-17T05:03:05;26.85;;;16.83;;
52043;SDS011;38053;53.100;6.078;2022-10-17T05:05:31;30.70;;;17.38;;
52043;SDS011;38053;53.100;6.078;2022-10-17T05:07:57;23.88;;;17.30;;
52043;SDS011;38053;53.100;6.078;2022-10-17T05:10:22;26.65;;;16.55;;
52043;SDS011;38053;53.100;6.078;2022-10-17T05:12:48;22.73;;;17.88;;
52043;SDS011;38053;53.100;6.078;2022-10-17T05:15:15;23.17;;;17.33;;
52043;SDS011;38053;53.100;6.078;2022-10-17T05:17:41;21.80;;;17.50;;
52043;SDS011;38053;53.100;6.078;2022-10-17T05:20:07;24.10;;;16.58;;
52043;SDS011;38053;53.100;6.078;2022-10-17T05:22:33;24.38;;;16.48;;
52043;SDS011;38053;53.100;6.078;2022-10-17T05:24:59;24.92;;;16.92;;
52043;SDS011;38053;53.100;6.078;2022-10-17T05:27:24;28.60;;;16.05;;
52043;SDS011;38053;53.100;6.078;2022-10-17T05:29:50;21.65;;;16.15;;
52043;SDS011;38053;53.100;6.078;2022-10-17T05:32:16;24.50;;;16.95;;
52043;SDS011;38053;53.100;6.078;2022-10-17T05:34:42;21.05;;;16.27;;
52043;SDS011;38053;53.100;6.078;2022-10-17T05:37:07;25.40;;;16.42;;
52043;SDS011;38053;53.100;6.078;2022-10-17T05:39:33;27.33;;;18.02;;
52043;SDS011;38053;53.100;6.078;2022-10-17T05:41:59;24.73;;;18.10;;
52043;SDS011;38053;53.100;6.078;2022-10-17T05:44:25;20.65;;;16.58;;
52043;SDS011;38053;53.100;6.078;2022-10-17T05:46:50;25.13;;;17.15;;
52043;SDS011;38053;53.100;6.078;2022-10-17T05:49:16;24.10;;;16.52;;
52043;SDS011;38053;53.100;6.078;2022-10-17T05:51:42;26.85;;;17.58;;
52043;SDS011;38053;53.100;6.078;2022-10-17T05:54:08;25.63;;;17.40;;
52043;SDS011;38053;53.100;6.078;2022-10-17T05:56:34;33.72;;;18.08;;
52043;SDS011;38053;53.100;6.078;2022-10-17T05:58:59;26.52;;;18.38;;
52043;SDS011;38053;53.100;6.078;2022-10-17T06:01:26;32.97;;;17.92;;
52043;SDS011;38053;53.100;6.078;2022-10-17T06:03:52;23.92;;;16.67;;
52043;SDS011;38053;53.100;6.078;2022-10-17T06:06:18;26.23;;;17.95;;
52043;SDS011;38053;53.100;6.078;2022-10-17T06:08:43;28.23;;;18.73;;
52043;SDS011;38053;53.100;6.078;2022-10-17T06:11:10;24.42;;;16.77;;
52043;SDS011;38053;53.100;6.078;2022-10-17T06:13:37;30.52;;;17.08;;
52043;SDS011;38053;53.100;6.078;2022-10-17T06:16:03;26.20;;;16.92;;
52043;SDS011;38053;53.100;6.078;2022-10-17T06:18:29;27.58;;;16.63;;
52043;SDS011;38053;53.100;6.078;2022-10-17T06:21:00;19.42;;;14.55;;
52043;SDS011;38053;53.100;6.078;2022-10-17T06:23:28;25.48;;;16.67;;
52043;SDS011;38053;53.100;6.078;2022-10-17T06:25:56;21.92;;;15.32;;
52043;SDS011;38053;53.100;6.078;2022-10-17T06:28:23;21.83;;;15.18;;
52043;SDS011;38053;53.100;6.078;2022-10-17T06:30:49;19.67;;;14.45;;
52043;SDS011;38053;53.100;6.078;2022-10-17T06:33:14;21.88;;;14.75;;
52043;SDS011;38053;53.100;6.078;2022-10-17T06:35:40;19.08;;;14.18;;
52043;SDS011;38053;53.100;6.078;2022-10-17T06:38:06;23.23;;;14.55;;
52043;SDS011;38053;53.100;6.078;2022-10-17T06:40:32;21.38;;;13.27;;
52043;SDS011;38053;53.100;6.078;2022-10-17T06:42:57;17.95;;;13.70;;
52043;SDS011;38053;53.100;6.078;2022-10-17T06:45:23;21.13;;;12.60;;
52043;SDS011;38053;53.100;6.078;2022-10-17T06:47:49;20.67;;;13.20;;
52043;SDS011;38053;53.100;6.078;2022-10-17T06:50:15;17.65;;;12.68;;
52043;SDS011;38053;53.100;6.078;2022-10-17T06:52:40;13.90;;;10.45;;
52043;SDS011;38053;53.100;6.078;2022-10-17T06:55:06;19.27;;;11.63;;
52043;SDS011;38053;53.100;6.078;2022-10-17T06:57:32;17.08;;;12.05;;
52043;SDS011;38053;53.100;6.078;2022-10-17T06:59:57;15.63;;;10.35;;
52043;SDS011;38053;53.100;6.078;2022-10-17T07:02:23;17.52;;;10.63;;
52043;SDS011;38053;53.100;6.078;2022-10-17T07:04:49;21.02;;;12.07;;
52043;SDS011;38053;53.100;6.078;2022-10-17T07:07:14;18.08;;;10.57;;
52043;SDS011;38053;53.100;6.078;2022-10-17T07:09:40;18.15;;;10.63;;
52043;SDS011;38053;53.100;6.078;2022-10-17T07:12:06;19.73;;;9.88;;
52043;SDS011;38053;53.100;6.078;2022-10-17T07:14:32;20.90;;;10.75;;
52043;SDS011;38053;53.100;6.078;2022-10-17T07:16:59;17.92;;;10.35;;
52043;SDS011;38053;53.100;6.078;2022-10-17T07:19:26;17.65;;;10.52;;
52043;SDS011;38053;53.100;6.078;2022-10-17T07:21:52;14.15;;;9.85;;
52043;SDS011;38053;53.100;6.078;2022-10-17T07:24:18;15.85;;;9.50;;
52043;SDS011;38053;53.100;6.078;2022-10-17T07:26:43;19.10;;;9.13;;
52043;SDS011;38053;53.100;6.078;2022-10-17T07:29:10;21.23;;;10.60;;
52043;SDS011;38053;53.100;6.078;2022-10-17T07:31:36;14.75;;;8.73;;
52043;SDS011;38053;53.100;6.078;2022-10-17T07:34:01;18.90;;;8.65;;
52043;SDS011;38053;53.100;6.078;2022-10-17T07:36:27;14.70;;;9.25;;
52043;SDS011;38053;53.100;6.078;2022-10-17T07:38:53;11.18;;;7.70;;
52043;SDS011;38053;53.100;6.078;2022-10-17T07:41:18;17.25;;;9.75;;
52043;SDS011;38053;53.100;6.078;2022-10-17T07:43:44;18.15;;;9.68;;
52043;SDS011;38053;53.100;6.078;2022-10-17T07:46:10;15.15;;;8.50;;
52043;SDS011;38053;53.100;6.078;2022-10-17T07:48:38;19.55;;;8.35;;
52043;SDS011;38053;53.100;6.078;2022-10-17T07:51:05;14.88;;;8.52;;
52043;SDS011;38053;53.100;6.078;2022-10-17T07:53:35;14.40;;;9.57;;
52043;SDS011;38053;53.100;6.078;2022-10-17T07:56:03;19.40;;;9.05;;
52043;SDS011;38053;53.100;6.078;2022-10-17T07:58:33;19.05;;;9.10;;
52043;SDS011;38053;53.100;6.078;2022-10-17T08:01:00;19.23;;;8.85;;
52043;SDS011;38053;53.100;6.078;2022-10-17T08:03:29;14.35;;;8.43;;
52043;SDS011;38053;53.100;6.078;2022-10-17T08:05:56;16.33;;;8.52;;
52043;SDS011;38053;53.100;6.078;2022-10-17T08:08:23;15.48;;;8.45;;
52043;SDS011;38053;53.100;6.078;2022-10-17T08:10:49;14.52;;;8.68;;
52043;SDS011;38053;53.100;6.078;2022-10-17T08:13:14;15.23;;;8.88;;
52043;SDS011;38053;53.100;6.078;2022-10-17T08:15:40;10.90;;;8.43;;
52043;SDS011;38053;53.100;6.078;2022-10-17T08:18:06;13.95;;;9.98;;
52043;SDS011;38053;53.100;6.078;2022-10-17T08:20:32;15.88;;;9.05;;
52043;SDS011;38053;53.100;6.078;2022-10-17T08:22:57;14.88;;;9.00;;
52043;SDS011;38053;53.100;6.078;2022-10-17T08:25:23;20.38;;;8.73;;
52043;SDS011;38053;53.100;6.078;2022-10-17T08:27:49;14.75;;;8.20;;
52043;SDS011;38053;53.100;6.078;2022-10-17T08:30:15;18.38;;;10.63;;
52043;SDS011;38053;53.100;6.078;2022-10-17T08:32:41;14.90;;;8.48;;
52043;SDS011;38053;53.100;6.078;2022-10-17T08:35:07;16.58;;;9.27;;
52043;SDS011;38053;53.100;6.078;2022-10-17T08:37:33;21.98;;;9.30;;
52043;SDS011;38053;53.100;6.078;2022-10-17T08:39:59;18.65;;;9.75;;
52043;SDS011;38053;53.100;6.078;2022-10-17T08:45:19;21.60;;;9.75;;
52043;SDS011;38053;53.100;6.078;2022-10-17T08:47:55;15.50;;;9.82;;
52043;SDS011;38053;53.100;6.078;2022-10-17T08:53:03;25.70;;;12.32;;
52043;SDS011;38053;53.100;6.078;2022-10-17T08:55:35;17.38;;;10.18;;
52043;SDS011;38053;53.100;6.078;2022-10-17T08:58:02;14.07;;;9.80;;
52043;SDS011;38053;53.100;6.078;2022-10-17T09:00:44;15.52;;;10.13;;
52043;SDS011;38053;53.100;6.078;2022-10-17T09:06:20;14.53;;;9.47;;
52043;SDS011;38053;53.100;6.078;2022-10-17T09:20:27;13.35;;;10.43;;
52043;SDS011;38053;53.100;6.078;2022-10-17T09:22:58;21.00;;;10.75;;
52043;SDS011;38053;53.100;6.078;2022-10-17T09:25:27;18.13;;;10.48;;
52043;SDS011;38053;53.100;6.078;2022-10-17T09:30:45;18.60;;;10.82;;
52043;SDS011;38053;53.100;6.078;2022-10-17T09:35:45;21.98;;;13.10;;
52043;SDS011;38053;53.100;6.078;2022-10-17T09:38:17;17.33;;;11.55;;
52043;SDS011;38053;53.100;6.078;2022-10-17T09:40:47;19.80;;;12.20;;
52043;SDS011;38053;53.100;6.078;2022-10-17T09:43:18;22.90;;;12.50;;
52043;SDS011;38053;53.100;6.078;2022-10-17T09:45:47;22.17;;;12.70;;
52043;SDS011;38053;53.100;6.078;2022-10-17T09:48:27;21.25;;;13.23;;
52043;SDS011;38053;53.100;6.078;2022-10-17T09:51:16;36.00;;;12.77;;
52043;SDS011;38053;53.100;6.078;2022-10-17T09:53:44;19.33;;;12.85;;
52043;SDS011;38053;53.100;6.078;2022-10-17T09:56:16;17.42;;;12.63;;
52043;SDS011;38053;53.100;6.078;2022-10-17T09:58:44;19.98;;;12.15;;
52043;SDS011;38053;53.100;6.078;2022-10-17T10:01:19;30.33;;;13.30;;
52043;SDS011;38053;53.100;6.078;2022-10-17T10:03:45;25.10;;;12.93;;
52043;SDS011;38053;53.100;6.078;2022-10-17T10:06:12;19.10;;;12.23;;
52043;SDS011;38053;53.100;6.078;2022-10-17T10:11:25;23.90;;;13.98;;
52043;SDS011;38053;53.100;6.078;2022-10-17T10:14:12;21.60;;;13.38;;
52043;SDS011;38053;53.100;6.078;2022-10-17T10:17:00;22.42;;;13.90;;
52043;SDS011;38053;53.100;6.078;2022-10-17T10:19:37;23.63;;;14.50;;
52043;SDS011;38053;53.100;6.078;2022-10-17T10:22:04;24.38;;;14.63;;
52043;SDS011;38053;53.100;6.078;2022-10-17T10:24:38;28.67;;;14.13;;
52043;SDS011;38053;53.100;6.078;2022-10-17T10:27:03;25.42;;;14.27;;
52043;SDS011;38053;53.100;6.078;2022-10-17T10:29:36;23.00;;;14.88;;
52043;SDS011;38053;53.100;6.078;2022-10-17T10:34:33;29.35;;;17.35;;
52043;SDS011;38053;53.100;6.078;2022-10-17T10:37:19;23.40;;;15.55;;
52043;SDS011;38053;53.100;6.078;2022-10-17T10:43:00;23.48;;;14.63;;
52043;SDS011;38053;53.100;6.078;2022-10-17T10:48:57;30.08;;;17.27;;
52043;SDS011;38053;53.100;6.078;2022-10-17T10:51:46;26.02;;;15.77;;
52043;SDS011;38053;53.100;6.078;2022-10-17T10:58:08;26.55;;;16.25;;
52043;SDS011;38053;53.100;6.078;2022-10-17T11:01:10;33.55;;;17.73;;
52043;SDS011;38053;53.100;6.078;2022-10-17T11:10:55;26.33;;;13.77;;
52043;SDS011;38053;53.100;6.078;2022-10-17T11:13:52;27.73;;;13.85;;
52043;SDS011;38053;53.100;6.078;2022-10-17T11:16:55;21.92;;;13.20;;
52043;SDS011;38053;53.100;6.078;2022-10-17T11:22:40;22.42;;;13.68;;
52043;SDS011;38053;53.100;6.078;2022-10-17T11:26:32;22.98;;;12.95;;
52043;SDS011;38053;53.100;6.078;2022-10-17T11:29:03;21.98;;;12.95;;
52043;SDS011;38053;53.100;6.078;2022-10-17T11:31:46;17.05;;;11.48;;
52043;SDS011;38053;53.100;6.078;2022-10-17T11:34:24;22.83;;;12.02;;
52043;SDS011;38053;53.100;6.078;2022-10-17T11:37:02;18.83;;;11.88;;
52043;SDS011;38053;53.100;6.078;2022-10-17T11:39:50;20.92;;;11.43;;
52043;SDS011;38053;53.100;6.078;2022-10-17T11:42:38;17.50;;;11.27;;
52043;SDS011;38053;53.100;6.078;2022-10-17T11:45:35;14.43;;;9.80;;
52043;SDS011;38053;53.100;6.078;2022-10-17T11:48:31;17.55;;;9.93;;
52043;SDS011;38053;53.100;6.078;2022-10-17T11:51:53;18.45;;;10.20;;
52043;SDS011;38053;53.100;6.078;2022-10-17T11:54:42;17.98;;;10.82;;
52043;SDS011;38053;53.100;6.078;2022-10-17T11:57:51;18.25;;;11.73;;
52043;SDS011;38053;53.100;6.078;2022-10-17T12:04:36;20.60;;;11.95;;
52043;SDS011;38053;53.100;6.078;2022-10-17T12:14:33;14.40;;;8.68;;
52043;SDS011;38053;53.100;6.078;2022-10-17T12:17:01;12.55;;;8.93;;
52043;SDS011;38053;53.100;6.078;2022-10-17T12:19:32;14.90;;;7.75;;
52043;SDS011;38053;53.100;6.078;2022-10-17T12:22:03;11.43;;;6.25;;
52043;SDS011;38053;53.100;6.078;2022-10-17T12:24:42;10.85;;;6.57;;
52043;SDS011;38053;53.100;6.078;2022-10-17T12:32:31;9.20;;;5.28;;
52043;SDS011;38053;53.100;6.078;2022-10-17T12:34:57;11.32;;;5.78;;
52043;SDS011;38053;53.100;6.078;2022-10-17T12:56:20;8.82;;;4.45;;
52043;SDS011;38053;53.100;6.078;2022-10-17T12:58:54;9.90;;;4.57;;
52043;SDS011;38053;53.100;6.078;2022-10-17T13:01:30;7.68;;;3.92;;
52043;SDS011;38053;53.100;6.078;2022-10-17T13:03:57;12.68;;;4.18;;
52043;SDS011;38053;53.100;6.078;2022-10-17T13:06:30;12.95;;;5.18;;
52043;SDS011;38053;53.100;6.078;2022-10-17T13:09:03;9.88;;;5.25;;
52043;SDS011;38053;53.100;6.078;2022-10-17T13:11:48;12.00;;;5.63;;
52043;SDS011;38053;53.100;6.078;2022-10-17T13:14:16;8.60;;;4.60;;
52043;SDS011;38053;53.100;6.078;2022-10-17T13:16:52;13.43;;;4.68;;
52043;SDS011;38053;53.100;6.078;2022-10-17T13:19:19;14.90;;;4.40;;
52043;SDS011;38053;53.100;6.078;2022-10-17T13:21:59;11.90;;;4.32;;
52043;SDS011;38053;53.100;6.078;2022-10-17T13:24:31;12.23;;;4.50;;
52043;SDS011;38053;53.100;6.078;2022-10-17T13:26:59;8.43;;;4.43;;
52043;SDS011;38053;53.100;6.078;2022-10-17T13:29:26;10.45;;;4.47;;
52043;SDS011;38053;53.100;6.078;2022-10-17T13:31:57;9.75;;;4.60;;
52043;SDS011;38053;53.100;6.078;2022-10-17T13:34:28;10.98;;;4.95;;
52043;SDS011;38053;53.100;6.078;2022-10-17T13:36:58;8.48;;;4.90;;
52043;SDS011;38053;53.100;6.078;2022-10-17T13:39:27;12.98;;;5.00;;
52043;SDS011;38053;53.100;6.078;2022-10-17T13:41:57;8.48;;;5.80;;
52043;SDS011;38053;53.100;6.078;2022-10-17T13:44:25;9.80;;;5.70;;
52043;SDS011;38053;53.100;6.078;2022-10-17T13:46:55;11.52;;;5.90;;
52043;SDS011;38053;53.100;6.078;2022-10-17T13:49:24;12.63;;;6.07;;
52043;SDS011;38053;53.100;6.078;2022-10-17T13:51:59;11.90;;;4.97;;
52043;SDS011;38053;53.100;6.078;2022-10-17T13:54:32;8.52;;;4.25;;
52043;SDS011;38053;53.100;6.078;2022-10-17T13:56:58;11.52;;;3.92;;
52043;SDS011;38053;53.100;6.078;2022-10-17T13:59:37;9.45;;;4.00;;
52043;SDS011;38053;53.100;6.078;2022-10-17T14:02:05;11.38;;;3.50;;
52043;SDS011;38053;53.100;6.078;2022-10-17T14:04:37;9.10;;;2.95;;
52043;SDS011;38053;53.100;6.078;2022-10-17T14:07:03;12.20;;;3.17;;
52043;SDS011;38053;53.100;6.078;2022-10-17T14:09:31;6.93;;;2.78;;
52043;SDS011;38053;53.100;6.078;2022-10-17T14:12:02;6.72;;;3.15;;
52043;SDS011;38053;53.100;6.078;2022-10-17T14:14:34;4.78;;;2.08;;
52043;SDS011;38053;53.100;6.078;2022-10-17T14:17:01;8.02;;;2.85;;
52043;SDS011;38053;53.100;6.078;2022-10-17T14:19:28;8.00;;;2.42;;
52043;SDS011;38053;53.100;6.078;2022-10-17T14:24:47;5.18;;;2.40;;
52043;SDS011;38053;53.100;6.078;2022-10-17T14:30:04;6.75;;;2.30;;
52043;SDS011;38053;53.100;6.078;2022-10-17T14:32:50;8.20;;;2.45;;
52043;SDS011;38053;53.100;6.078;2022-10-17T14:35:19;6.53;;;2.45;;
52043;SDS011;38053;53.100;6.078;2022-10-17T14:37:46;9.70;;;2.67;;
52043;SDS011;38053;53.100;6.078;2022-10-17T14:40:24;6.82;;;3.10;;
52043;SDS011;38053;53.100;6.078;2022-10-17T14:42:52;8.25;;;2.75;;
52043;SDS011;38053;53.100;6.078;2022-10-17T14:47:59;8.68;;;3.05;;
52043;SDS011;38053;53.100;6.078;2022-10-17T14:50:28;10.10;;;2.97;;
52043;SDS011;38053;53.100;6.078;2022-10-17T14:53:00;11.23;;;3.78;;
52043;SDS011;38053;53.100;6.078;2022-10-17T14:55:35;8.18;;;3.30;;
52043;SDS011;38053;53.100;6.078;2022-10-17T14:58:14;8.95;;;3.17;;
52043;SDS011;38053;53.100;6.078;2022-10-17T15:00:41;10.18;;;3.42;;
52043;SDS011;38053;53.100;6.078;2022-10-17T15:03:06;8.73;;;3.10;;
52043;SDS011;38053;53.100;6.078;2022-10-17T15:05:33;5.88;;;3.05;;
52043;SDS011;38053;53.100;6.078;2022-10-17T15:07:59;8.20;;;3.38;;
52043;SDS011;38053;53.100;6.078;2022-10-17T15:10:27;8.82;;;3.40;;
52043;SDS011;38053;53.100;6.078;2022-10-17T15:12:57;8.05;;;3.17;;
52043;SDS011;38053;53.100;6.078;2022-10-17T15:15:24;13.60;;;3.38;;
52043;SDS011;38053;53.100;6.078;2022-10-17T15:17:50;10.45;;;2.92;;
52043;SDS011;38053;53.100;6.078;2022-10-17T15:20:16;9.40;;;3.10;;
52043;SDS011;38053;53.100;6.078;2022-10-17T15:22:43;7.10;;;3.70;;
52043;SDS011;38053;53.100;6.078;2022-10-17T15:25:08;14.02;;;4.57;;
52043;SDS011;38053;53.100;6.078;2022-10-17T15:27:34;8.50;;;3.30;;
52043;SDS011;38053;53.100;6.078;2022-10-17T15:30:00;9.70;;;4.68;;
52043;SDS011;38053;53.100;6.078;2022-10-17T15:32:26;9.35;;;3.03;;
52043;SDS011;38053;53.100;6.078;2022-10-17T15:34:51;11.25;;;3.58;;
52043;SDS011;38053;53.100;6.078;2022-10-17T15:37:18;7.55;;;3.30;;
52043;SDS011;38053;53.100;6.078;2022-10-17T15:39:50;11.73;;;3.72;;
52043;SDS011;38053;53.100;6.078;2022-10-17T15:42:18;9.35;;;3.22;;
52043;SDS011;38053;53.100;6.078;2022-10-17T15:44:50;10.55;;;4.00;;
52043;SDS011;38053;53.100;6.078;2022-10-17T15:49:50;12.40;;;3.53;;
52043;SDS011;38053;53.100;6.078;2022-10-17T15:52:17;8.20;;;2.67;;
52043;SDS011;38053;53.100;6.078;2022-10-17T15:54:43;11.90;;;2.55;;
52043;SDS011;38053;53.100;6.078;2022-10-17T15:57:13;7.07;;;3.53;;
52043;SDS011;38053;53.100;6.078;2022-10-17T15:59:45;8.75;;;3.35;;
52043;SDS011;38053;53.100;6.078;2022-10-17T16:02:12;9.95;;;2.90;;
52043;SDS011;38053;53.100;6.078;2022-10-17T16:04:39;9.82;;;3.30;;
52043;SDS011;38053;53.100;6.078;2022-10-17T16:07:04;7.40;;;3.88;;
52043;SDS011;38053;53.100;6.078;2022-10-17T16:09:31;8.95;;;3.22;;
52043;SDS011;38053;53.100;6.078;2022-10-17T16:11:59;10.50;;;4.47;;
52043;SDS011;38053;53.100;6.078;2022-10-17T16:14:25;10.18;;;4.00;;
52043;SDS011;38053;53.100;6.078;2022-10-17T16:16:50;9.00;;;3.20;;
52043;SDS011;38053;53.100;6.078;2022-10-17T16:19:16;8.68;;;4.03;;
52043;SDS011;38053;53.100;6.078;2022-10-17T16:21:42;8.73;;;4.03;;
52043;SDS011;38053;53.100;6.078;2022-10-17T16:24:11;9.18;;;4.47;;
52043;SDS011;38053;53.100;6.078;2022-10-17T16:26:40;10.38;;;3.95;;
52043;SDS011;38053;53.100;6.078;2022-10-17T16:29:05;9.20;;;4.45;;
52043;SDS011;38053;53.100;6.078;2022-10-17T16:31:33;7.45;;;3.78;;
52043;SDS011;38053;53.100;6.078;2022-10-17T16:34:01;9.82;;;4.15;;
52043;SDS011;38053;53.100;6.078;2022-10-17T16:36:27;12.73;;;4.53;;
52043;SDS011;38053;53.100;6.078;2022-10-17T16:38:53;10.30;;;4.85;;
52043;SDS011;38053;53.100;6.078;2022-10-17T16:41:23;10.68;;;5.25;;
52043;SDS011;38053;53.100;6.078;2022-10-17T16:43:51;9.15;;;4.70;;
52043;SDS011;38053;53.100;6.078;2022-10-17T16:46:18;12.65;;;4.43;;
52043;SDS011;38053;53.100;6.078;2022-10-17T16:48:45;10.98;;;5.38;;
52043;SDS011;38053;53.100;6.078;2022-10-17T16:51:11;12.68;;;4.68;;
52043;SDS011;38053;53.100;6.078;2022-10-17T16:53:38;10.25;;;4.85;;
52043;SDS011;38053;53.100;6.078;2022-10-17T16:56:07;16.75;;;5.47;;